sensor_id;sensor_type;location;lat;lon;timestamp;P1;durP1;ratioP1;P2;durP2;ratioP2
73515;SDS011;61763;51.416;5.442;2022-11-15T00:00:46;32.10;;;12.52;;
73515;SDS011;61763;51.416;5.442;2022-11-15T00:03:19;27.85;;;11.95;;
73515;SDS011;61763;51.416;5.442;2022-11-15T00:05:45;26.30;;;12.38;;
73515;SDS011;61763;51.416;5.442;2022-11-15T00:08:11;26.92;;;11.95;;
73515;SDS011;61763;51.416;5.442;2022-11-15T00:10:37;27.20;;;11.68;;
73515;SDS011;61763;51.416;5.442;2022-11-15T00:13:06;24.33;;;11.55;;
73515;SDS011;61763;51.416;5.442;2022-11-15T00:15:36;23.60;;;11.23;;
73515;SDS011;61763;51.416;5.442;2022-11-15T00:18:02;30.48;;;12.27;;
73515;SDS011;61763;51.416;5.442;2022-11-15T00:20:29;24.38;;;11.45;;
73515;SDS011;61763;51.416;5.442;2022-11-15T00:22:55;22.95;;;11.32;;
73515;SDS011;61763;51.416;5.442;2022-11-15T00:25:21;23.60;;;11.68;;
73515;SDS011;61763;51.416;5.442;2022-11-15T00:27:46;26.25;;;10.95;;
73515;SDS011;61763;51.416;5.442;2022-11-15T00:30:12;28.50;;;12.95;;
73515;SDS011;61763;51.416;5.442;2022-11-15T00:32:38;25.48;;;11.40;;
73515;SDS011;61763;51.416;5.442;2022-11-15T00:35:04;23.10;;;11.35;;
73515;SDS011;61763;51.416;5.442;2022-11-15T00:37:31;23.40;;;10.50;;
73515;SDS011;61763;51.416;5.442;2022-11-15T00:39:56;24.85;;;10.55;;
73515;SDS011;61763;51.416;5.442;2022-11-15T00:42:21;24.13;;;11.13;;
73515;SDS011;61763;51.416;5.442;2022-11-15T00:44:47;23.45;;;11.63;;
73515;SDS011;61763;51.416;5.442;2022-11-15T00:47:12;27.97;;;12.13;;
73515;SDS011;61763;51.416;5.442;2022-11-15T00:49:37;21.92;;;11.05;;
73515;SDS011;61763;51.416;5.442;2022-11-15T00:52:03;22.02;;;11.07;;
73515;SDS011;61763;51.416;5.442;2022-11-15T00:54:28;23.45;;;12.10;;
73515;SDS011;61763;51.416;5.442;2022-11-15T00:56:54;28.48;;;13.02;;
73515;SDS011;61763;51.416;5.442;2022-11-15T00:59:19;21.70;;;10.50;;
73515;SDS011;61763;51.416;5.442;2022-11-15T01:01:44;25.38;;;10.52;;
73515;SDS011;61763;51.416;5.442;2022-11-15T01:04:10;23.55;;;11.48;;
73515;SDS011;61763;51.416;5.442;2022-11-15T01:06:35;24.80;;;11.68;;
73515;SDS011;61763;51.416;5.442;2022-11-15T01:09:00;24.85;;;11.98;;
73515;SDS011;61763;51.416;5.442;2022-11-15T01:11:26;27.20;;;12.57;;
73515;SDS011;61763;51.416;5.442;2022-11-15T01:13:51;24.58;;;11.18;;
73515;SDS011;61763;51.416;5.442;2022-11-15T01:16:17;26.17;;;12.80;;
73515;SDS011;61763;51.416;5.442;2022-11-15T01:18:43;25.23;;;12.45;;
73515;SDS011;61763;51.416;5.442;2022-11-15T01:21:10;27.85;;;12.45;;
73515;SDS011;61763;51.416;5.442;2022-11-15T01:23:39;28.77;;;13.82;;
73515;SDS011;61763;51.416;5.442;2022-11-15T01:26:06;28.05;;;13.10;;
73515;SDS011;61763;51.416;5.442;2022-11-15T01:28:35;32.67;;;12.60;;
73515;SDS011;61763;51.416;5.442;2022-11-15T01:31:02;29.25;;;12.23;;
73515;SDS011;61763;51.416;5.442;2022-11-15T01:33:29;33.53;;;13.40;;
73515;SDS011;61763;51.416;5.442;2022-11-15T01:35:55;33.45;;;13.60;;
73515;SDS011;61763;51.416;5.442;2022-11-15T01:38:21;32.92;;;13.05;;
73515;SDS011;61763;51.416;5.442;2022-11-15T01:40:47;34.80;;;14.00;;
73515;SDS011;61763;51.416;5.442;2022-11-15T01:43:20;32.78;;;13.48;;
73515;SDS011;61763;51.416;5.442;2022-11-15T01:45:46;30.20;;;14.10;;
73515;SDS011;61763;51.416;5.442;2022-11-15T01:48:17;30.75;;;12.55;;
73515;SDS011;61763;51.416;5.442;2022-11-15T01:50:43;30.83;;;13.88;;
73515;SDS011;61763;51.416;5.442;2022-11-15T01:53:11;30.17;;;14.00;;
73515;SDS011;61763;51.416;5.442;2022-11-15T01:55:37;31.65;;;13.73;;
73515;SDS011;61763;51.416;5.442;2022-11-15T01:58:03;30.77;;;14.02;;
73515;SDS011;61763;51.416;5.442;2022-11-15T02:00:31;28.17;;;13.07;;
73515;SDS011;61763;51.416;5.442;2022-11-15T02:02:57;30.38;;;13.20;;
73515;SDS011;61763;51.416;5.442;2022-11-15T02:05:22;32.80;;;14.02;;
73515;SDS011;61763;51.416;5.442;2022-11-15T02:07:48;33.53;;;14.18;;
73515;SDS011;61763;51.416;5.442;2022-11-15T02:10:17;31.05;;;13.77;;
73515;SDS011;61763;51.416;5.442;2022-11-15T02:12:43;28.20;;;13.45;;
73515;SDS011;61763;51.416;5.442;2022-11-15T02:15:10;30.05;;;12.75;;
73515;SDS011;61763;51.416;5.442;2022-11-15T02:34:11;28.40;;;14.13;;
73515;SDS011;61763;51.416;5.442;2022-11-15T02:39:28;28.20;;;13.85;;
73515;SDS011;61763;51.416;5.442;2022-11-15T02:42:00;27.63;;;12.55;;
73515;SDS011;61763;51.416;5.442;2022-11-15T02:44:33;33.30;;;14.07;;
73515;SDS011;61763;51.416;5.442;2022-11-15T02:47:04;28.30;;;13.77;;
73515;SDS011;61763;51.416;5.442;2022-11-15T02:49:41;28.08;;;12.35;;
73515;SDS011;61763;51.416;5.442;2022-11-15T02:52:15;26.65;;;13.20;;
73515;SDS011;61763;51.416;5.442;2022-11-15T02:54:54;25.13;;;11.75;;
73515;SDS011;61763;51.416;5.442;2022-11-15T02:57:25;25.77;;;12.68;;
73515;SDS011;61763;51.416;5.442;2022-11-15T03:11:15;26.55;;;12.15;;
73515;SDS011;61763;51.416;5.442;2022-11-15T03:16:29;23.80;;;12.05;;
73515;SDS011;61763;51.416;5.442;2022-11-15T03:19:07;27.55;;;11.55;;
73515;SDS011;61763;51.416;5.442;2022-11-15T03:21:39;25.10;;;12.38;;
73515;SDS011;61763;51.416;5.442;2022-11-15T03:24:05;29.83;;;13.55;;
73515;SDS011;61763;51.416;5.442;2022-11-15T03:26:33;26.63;;;12.98;;
73515;SDS011;61763;51.416;5.442;2022-11-15T03:29:04;30.70;;;13.13;;
73515;SDS011;61763;51.416;5.442;2022-11-15T03:31:37;26.58;;;13.25;;
73515;SDS011;61763;51.416;5.442;2022-11-15T03:34:25;27.65;;;12.95;;
73515;SDS011;61763;51.416;5.442;2022-11-15T03:36:54;25.92;;;12.65;;
73515;SDS011;61763;51.416;5.442;2022-11-15T03:39:20;28.88;;;13.38;;
73515;SDS011;61763;51.416;5.442;2022-11-15T03:41:53;31.42;;;14.65;;
73515;SDS011;61763;51.416;5.442;2022-11-15T03:44:40;32.97;;;14.07;;
73515;SDS011;61763;51.416;5.442;2022-11-15T03:47:08;32.55;;;13.85;;
73515;SDS011;61763;51.416;5.442;2022-11-15T03:49:39;29.77;;;13.30;;
73515;SDS011;61763;51.416;5.442;2022-11-15T03:52:09;28.40;;;13.70;;
73515;SDS011;61763;51.416;5.442;2022-11-15T03:54:35;33.45;;;13.98;;
73515;SDS011;61763;51.416;5.442;2022-11-15T03:57:00;27.30;;;13.45;;
73515;SDS011;61763;51.416;5.442;2022-11-15T03:59:25;28.20;;;13.65;;
73515;SDS011;61763;51.416;5.442;2022-11-15T04:01:51;32.38;;;15.05;;
73515;SDS011;61763;51.416;5.442;2022-11-15T04:04:16;29.58;;;14.75;;
73515;SDS011;61763;51.416;5.442;2022-11-15T04:06:42;34.30;;;14.65;;
73515;SDS011;61763;51.416;5.442;2022-11-15T04:09:07;33.55;;;14.27;;
73515;SDS011;61763;51.416;5.442;2022-11-15T04:11:32;32.80;;;13.50;;
73515;SDS011;61763;51.416;5.442;2022-11-15T04:13:58;27.58;;;13.38;;
73515;SDS011;61763;51.416;5.442;2022-11-15T04:16:23;30.25;;;13.10;;
73515;SDS011;61763;51.416;5.442;2022-11-15T04:18:48;30.95;;;14.10;;
73515;SDS011;61763;51.416;5.442;2022-11-15T04:21:34;30.02;;;13.43;;
73515;SDS011;61763;51.416;5.442;2022-11-15T04:24:18;33.97;;;14.02;;
73515;SDS011;61763;51.416;5.442;2022-11-15T04:26:43;32.88;;;14.70;;
73515;SDS011;61763;51.416;5.442;2022-11-15T04:29:09;30.10;;;13.10;;
73515;SDS011;61763;51.416;5.442;2022-11-15T04:31:53;29.88;;;13.60;;
73515;SDS011;61763;51.416;5.442;2022-11-15T04:34:18;31.13;;;15.33;;
73515;SDS011;61763;51.416;5.442;2022-11-15T04:36:43;27.57;;;13.70;;
73515;SDS011;61763;51.416;5.442;2022-11-15T04:39:27;30.90;;;13.88;;
73515;SDS011;61763;51.416;5.442;2022-11-15T04:41:53;30.70;;;14.00;;
73515;SDS011;61763;51.416;5.442;2022-11-15T04:44:18;31.20;;;14.60;;
73515;SDS011;61763;51.416;5.442;2022-11-15T04:46:43;31.60;;;13.98;;
73515;SDS011;61763;51.416;5.442;2022-11-15T04:49:09;31.85;;;14.43;;
73515;SDS011;61763;51.416;5.442;2022-11-15T04:51:34;30.75;;;13.80;;
73515;SDS011;61763;51.416;5.442;2022-11-15T04:53:59;34.28;;;14.23;;
73515;SDS011;61763;51.416;5.442;2022-11-15T04:56:25;28.30;;;13.45;;
73515;SDS011;61763;51.416;5.442;2022-11-15T04:58:50;31.08;;;14.02;;
73515;SDS011;61763;51.416;5.442;2022-11-15T05:01:15;33.83;;;14.85;;
73515;SDS011;61763;51.416;5.442;2022-11-15T05:03:41;29.70;;;15.15;;
73515;SDS011;61763;51.416;5.442;2022-11-15T05:06:26;30.52;;;14.80;;
73515;SDS011;61763;51.416;5.442;2022-11-15T05:08:51;33.50;;;14.18;;
73515;SDS011;61763;51.416;5.442;2022-11-15T05:11:16;28.73;;;13.90;;
73515;SDS011;61763;51.416;5.442;2022-11-15T05:13:42;30.25;;;13.52;;
73515;SDS011;61763;51.416;5.442;2022-11-15T05:16:07;33.67;;;14.15;;
73515;SDS011;61763;51.416;5.442;2022-11-15T05:18:32;29.88;;;13.65;;
73515;SDS011;61763;51.416;5.442;2022-11-15T05:21:04;33.47;;;14.23;;
73515;SDS011;61763;51.416;5.442;2022-11-15T05:23:31;34.30;;;13.05;;
73515;SDS011;61763;51.416;5.442;2022-11-15T05:25:59;29.27;;;12.93;;
73515;SDS011;61763;51.416;5.442;2022-11-15T05:28:25;26.02;;;12.02;;
73515;SDS011;61763;51.416;5.442;2022-11-15T05:30:50;34.17;;;13.00;;
73515;SDS011;61763;51.416;5.442;2022-11-15T05:33:16;26.30;;;13.32;;
73515;SDS011;61763;51.416;5.442;2022-11-15T05:35:43;25.02;;;12.25;;
73515;SDS011;61763;51.416;5.442;2022-11-15T05:38:13;34.40;;;13.30;;
73515;SDS011;61763;51.416;5.442;2022-11-15T05:40:39;29.35;;;13.38;;
73515;SDS011;61763;51.416;5.442;2022-11-15T05:43:06;31.02;;;13.80;;
73515;SDS011;61763;51.416;5.442;2022-11-15T05:45:31;31.52;;;12.40;;
73515;SDS011;61763;51.416;5.442;2022-11-15T05:47:59;27.27;;;12.65;;
73515;SDS011;61763;51.416;5.442;2022-11-15T05:50:25;29.38;;;12.77;;
73515;SDS011;61763;51.416;5.442;2022-11-15T05:52:51;28.85;;;12.80;;
73515;SDS011;61763;51.416;5.442;2022-11-15T05:55:17;31.20;;;13.38;;
73515;SDS011;61763;51.416;5.442;2022-11-15T05:57:42;26.95;;;12.55;;
73515;SDS011;61763;51.416;5.442;2022-11-15T06:00:08;29.70;;;12.73;;
73515;SDS011;61763;51.416;5.442;2022-11-15T06:02:34;28.55;;;12.82;;
73515;SDS011;61763;51.416;5.442;2022-11-15T06:05:00;30.25;;;13.35;;
73515;SDS011;61763;51.416;5.442;2022-11-15T06:07:25;29.27;;;13.98;;
73515;SDS011;61763;51.416;5.442;2022-11-15T06:09:50;33.05;;;14.00;;
73515;SDS011;61763;51.416;5.442;2022-11-15T06:12:16;31.17;;;13.60;;
73515;SDS011;61763;51.416;5.442;2022-11-15T06:14:41;37.05;;;14.75;;
73515;SDS011;61763;51.416;5.442;2022-11-15T06:17:06;32.08;;;14.35;;
73515;SDS011;61763;51.416;5.442;2022-11-15T06:19:32;34.42;;;14.60;;
73515;SDS011;61763;51.416;5.442;2022-11-15T06:22:00;28.83;;;14.68;;
73515;SDS011;61763;51.416;5.442;2022-11-15T06:24:25;32.63;;;14.10;;
73515;SDS011;61763;51.416;5.442;2022-11-15T06:26:50;26.45;;;12.20;;
73515;SDS011;61763;51.416;5.442;2022-11-15T06:29:16;24.13;;;11.93;;
73515;SDS011;61763;51.416;5.442;2022-11-15T06:31:41;28.73;;;12.25;;
73515;SDS011;61763;51.416;5.442;2022-11-15T06:34:06;27.10;;;10.90;;
73515;SDS011;61763;51.416;5.442;2022-11-15T06:36:33;18.45;;;9.38;;
73515;SDS011;61763;51.416;5.442;2022-11-15T06:39:00;22.95;;;9.82;;
73515;SDS011;61763;51.416;5.442;2022-11-15T06:41:25;23.20;;;10.30;;
73515;SDS011;61763;51.416;5.442;2022-11-15T06:43:50;22.90;;;10.52;;
73515;SDS011;61763;51.416;5.442;2022-11-15T06:46:16;22.40;;;10.50;;
73515;SDS011;61763;51.416;5.442;2022-11-15T06:48:41;20.48;;;9.85;;
73515;SDS011;61763;51.416;5.442;2022-11-15T06:51:06;21.90;;;10.90;;
73515;SDS011;61763;51.416;5.442;2022-11-15T06:53:33;23.60;;;10.30;;
73515;SDS011;61763;51.416;5.442;2022-11-15T06:56:00;23.13;;;10.77;;
73515;SDS011;61763;51.416;5.442;2022-11-15T06:58:29;26.10;;;11.52;;
73515;SDS011;61763;51.416;5.442;2022-11-15T07:01:00;22.60;;;10.73;;
73515;SDS011;61763;51.416;5.442;2022-11-15T07:03:30;30.23;;;11.25;;
73515;SDS011;61763;51.416;5.442;2022-11-15T07:05:56;26.38;;;11.60;;
73515;SDS011;61763;51.416;5.442;2022-11-15T07:08:23;25.55;;;11.18;;
73515;SDS011;61763;51.416;5.442;2022-11-15T07:10:51;25.02;;;11.10;;
73515;SDS011;61763;51.416;5.442;2022-11-15T07:13:17;23.40;;;10.48;;
73515;SDS011;61763;51.416;5.442;2022-11-15T07:15:42;27.73;;;11.70;;
73515;SDS011;61763;51.416;5.442;2022-11-15T07:18:08;21.98;;;10.20;;
73515;SDS011;61763;51.416;5.442;2022-11-15T07:20:33;25.95;;;10.18;;
73515;SDS011;61763;51.416;5.442;2022-11-15T07:23:02;23.15;;;10.25;;
73515;SDS011;61763;51.416;5.442;2022-11-15T07:25:28;24.88;;;10.43;;
73515;SDS011;61763;51.416;5.442;2022-11-15T07:27:55;19.45;;;9.05;;
73515;SDS011;61763;51.416;5.442;2022-11-15T07:30:21;20.38;;;9.45;;
73515;SDS011;61763;51.416;5.442;2022-11-15T07:32:47;18.98;;;9.15;;
73515;SDS011;61763;51.416;5.442;2022-11-15T07:35:16;21.30;;;9.52;;
73515;SDS011;61763;51.416;5.442;2022-11-15T07:37:42;20.75;;;8.85;;
73515;SDS011;61763;51.416;5.442;2022-11-15T07:40:07;19.63;;;9.88;;
73515;SDS011;61763;51.416;5.442;2022-11-15T07:42:33;18.30;;;8.07;;
73515;SDS011;61763;51.416;5.442;2022-11-15T07:45:19;20.77;;;8.45;;
73515;SDS011;61763;51.416;5.442;2022-11-15T07:47:49;16.23;;;8.27;;
73515;SDS011;61763;51.416;5.442;2022-11-15T07:50:15;19.13;;;7.82;;
73515;SDS011;61763;51.416;5.442;2022-11-15T07:52:41;15.60;;;7.50;;
73515;SDS011;61763;51.416;5.442;2022-11-15T07:55:07;20.38;;;8.20;;
73515;SDS011;61763;51.416;5.442;2022-11-15T07:57:33;17.05;;;8.02;;
73515;SDS011;61763;51.416;5.442;2022-11-15T07:59:58;17.70;;;8.10;;
73515;SDS011;61763;51.416;5.442;2022-11-15T08:02:25;20.50;;;7.90;;
73515;SDS011;61763;51.416;5.442;2022-11-15T08:04:50;15.37;;;7.40;;
73515;SDS011;61763;51.416;5.442;2022-11-15T08:07:15;13.63;;;6.80;;
73515;SDS011;61763;51.416;5.442;2022-11-15T08:09:41;18.83;;;7.47;;
73515;SDS011;61763;51.416;5.442;2022-11-15T08:12:06;16.50;;;7.47;;
73515;SDS011;61763;51.416;5.442;2022-11-15T08:14:32;19.25;;;8.43;;
73515;SDS011;61763;51.416;5.442;2022-11-15T08:16:59;15.70;;;7.95;;
73515;SDS011;61763;51.416;5.442;2022-11-15T08:19:24;16.45;;;7.00;;
73515;SDS011;61763;51.416;5.442;2022-11-15T08:21:50;13.27;;;6.72;;
73515;SDS011;61763;51.416;5.442;2022-11-15T08:24:15;15.47;;;6.73;;
73515;SDS011;61763;51.416;5.442;2022-11-15T08:26:41;13.07;;;5.95;;
73515;SDS011;61763;51.416;5.442;2022-11-15T08:29:06;13.85;;;6.90;;
73515;SDS011;61763;51.416;5.442;2022-11-15T08:31:33;16.05;;;7.22;;
73515;SDS011;61763;51.416;5.442;2022-11-15T08:34:04;14.48;;;6.72;;
73515;SDS011;61763;51.416;5.442;2022-11-15T08:36:31;13.68;;;6.40;;
73515;SDS011;61763;51.416;5.442;2022-11-15T08:38:57;12.20;;;6.68;;
73515;SDS011;61763;51.416;5.442;2022-11-15T08:41:24;12.68;;;6.32;;
73515;SDS011;61763;51.416;5.442;2022-11-15T08:43:59;14.07;;;5.80;;
73515;SDS011;61763;51.416;5.442;2022-11-15T08:46:24;10.25;;;5.22;;
73515;SDS011;61763;51.416;5.442;2022-11-15T08:48:51;14.13;;;5.07;;
73515;SDS011;61763;51.416;5.442;2022-11-15T08:51:18;13.82;;;5.63;;
73515;SDS011;61763;51.416;5.442;2022-11-15T08:53:43;11.30;;;4.95;;
73515;SDS011;61763;51.416;5.442;2022-11-15T08:56:09;9.68;;;4.82;;
73515;SDS011;61763;51.416;5.442;2022-11-15T08:58:36;11.02;;;4.53;;
73515;SDS011;61763;51.416;5.442;2022-11-15T09:01:02;9.57;;;4.22;;
73515;SDS011;61763;51.416;5.442;2022-11-15T09:03:28;8.35;;;4.10;;
73515;SDS011;61763;51.416;5.442;2022-11-15T09:05:57;8.65;;;3.65;;
73515;SDS011;61763;51.416;5.442;2022-11-15T09:08:25;6.60;;;3.33;;
73515;SDS011;61763;51.416;5.442;2022-11-15T09:10:56;6.40;;;2.75;;
73515;SDS011;61763;51.416;5.442;2022-11-15T09:13:21;7.13;;;3.08;;
73515;SDS011;61763;51.416;5.442;2022-11-15T09:15:47;7.78;;;3.22;;
73515;SDS011;61763;51.416;5.442;2022-11-15T09:18:12;6.38;;;2.60;;
73515;SDS011;61763;51.416;5.442;2022-11-15T09:20:38;7.45;;;2.70;;
73515;SDS011;61763;51.416;5.442;2022-11-15T09:23:05;5.97;;;2.25;;
73515;SDS011;61763;51.416;5.442;2022-11-15T09:25:31;5.72;;;2.40;;
73515;SDS011;61763;51.416;5.442;2022-11-15T09:27:57;5.18;;;2.15;;
73515;SDS011;61763;51.416;5.442;2022-11-15T09:30:23;4.63;;;1.70;;
73515;SDS011;61763;51.416;5.442;2022-11-15T09:32:49;3.50;;;2.38;;
73515;SDS011;61763;51.416;5.442;2022-11-15T09:35:15;3.70;;;1.23;;
73515;SDS011;61763;51.416;5.442;2022-11-15T09:37:41;2.38;;;1.20;;
73515;SDS011;61763;51.416;5.442;2022-11-15T09:40:11;3.10;;;0.82;;
73515;SDS011;61763;51.416;5.442;2022-11-15T09:45:32;3.15;;;0.57;;
73515;SDS011;61763;51.416;5.442;2022-11-15T09:54:10;1.90;;;0.32;;
73515;SDS011;61763;51.416;5.442;2022-11-15T09:56:40;2.80;;;0.43;;
73515;SDS011;61763;51.416;5.442;2022-11-15T10:04:42;3.95;;;0.50;;
73515;SDS011;61763;51.416;5.442;2022-11-15T10:07:25;2.58;;;0.43;;
73515;SDS011;61763;51.416;5.442;2022-11-15T10:12:24;10.30;;;0.70;;
73515;SDS011;61763;51.416;5.442;2022-11-15T10:14:58;3.70;;;0.28;;
73515;SDS011;61763;51.416;5.442;2022-11-15T10:17:33;3.22;;;0.50;;
73515;SDS011;61763;51.416;5.442;2022-11-15T10:20:18;1.63;;;0.70;;
73515;SDS011;61763;51.416;5.442;2022-11-15T10:22:53;4.65;;;0.52;;
73515;SDS011;61763;51.416;5.442;2022-11-15T10:27:54;3.08;;;0.32;;
73515;SDS011;61763;51.416;5.442;2022-11-15T10:30:32;6.07;;;0.40;;
73515;SDS011;61763;51.416;5.442;2022-11-15T10:33:08;3.58;;;1.23;;
73515;SDS011;61763;51.416;5.442;2022-11-15T10:35:39;4.97;;;0.32;;
73515;SDS011;61763;51.416;5.442;2022-11-15T10:38:08;2.15;;;0.63;;
73515;SDS011;61763;51.416;5.442;2022-11-15T10:40:35;3.92;;;0.55;;
73515;SDS011;61763;51.416;5.442;2022-11-15T10:45:39;4.18;;;0.43;;
73515;SDS011;61763;51.416;5.442;2022-11-15T10:50:48;3.70;;;0.52;;
73515;SDS011;61763;51.416;5.442;2022-11-15T10:55:52;3.58;;;0.50;;
73515;SDS011;61763;51.416;5.442;2022-11-15T11:01:14;3.45;;;0.75;;
73515;SDS011;61763;51.416;5.442;2022-11-15T11:03:45;7.82;;;0.68;;
73515;SDS011;61763;51.416;5.442;2022-11-15T11:06:27;3.03;;;0.30;;
73515;SDS011;61763;51.416;5.442;2022-11-15T11:09:03;5.50;;;0.73;;
73515;SDS011;61763;51.416;5.442;2022-11-15T11:11:50;10.50;;;0.80;;
73515;SDS011;61763;51.416;5.442;2022-11-15T11:14:21;4.47;;;0.40;;
73515;SDS011;61763;51.416;5.442;2022-11-15T11:16:50;4.07;;;0.20;;
73515;SDS011;61763;51.416;5.442;2022-11-15T11:19:39;2.53;;;0.40;;
73515;SDS011;61763;51.416;5.442;2022-11-15T11:22:47;3.13;;;0.30;;
73515;SDS011;61763;51.416;5.442;2022-11-15T11:30:55;5.65;;;0.50;;
73515;SDS011;61763;51.416;5.442;2022-11-15T11:42:24;1.65;;;0.30;;
73515;SDS011;61763;51.416;5.442;2022-11-15T11:50:45;6.63;;;0.70;;
73515;SDS011;61763;51.416;5.442;2022-11-15T11:55:47;1.83;;;0.35;;
73515;SDS011;61763;51.416;5.442;2022-11-15T12:01:25;3.22;;;0.22;;
73515;SDS011;61763;51.416;5.442;2022-11-15T12:06:47;2.70;;;0.45;;
73515;SDS011;61763;51.416;5.442;2022-11-15T12:14:55;4.75;;;0.50;;
73515;SDS011;61763;51.416;5.442;2022-11-15T12:17:25;1.77;;;0.35;;
73515;SDS011;61763;51.416;5.442;2022-11-15T12:19:56;2.22;;;0.22;;
73515;SDS011;61763;51.416;5.442;2022-11-15T12:30:57;4.95;;;0.52;;
73515;SDS011;61763;51.416;5.442;2022-11-15T12:36:07;3.15;;;0.65;;
73515;SDS011;61763;51.416;5.442;2022-11-15T12:41:42;5.50;;;0.43;;
73515;SDS011;61763;51.416;5.442;2022-11-15T13:17:58;2.47;;;0.50;;
73515;SDS011;61763;51.416;5.442;2022-11-15T13:20:28;2.15;;;0.30;;
73515;SDS011;61763;51.416;5.442;2022-11-15T13:28:11;5.95;;;0.57;;
73515;SDS011;61763;51.416;5.442;2022-11-15T13:30:53;1.88;;;0.43;;
73515;SDS011;61763;51.416;5.442;2022-11-15T13:33:21;2.40;;;0.30;;
73515;SDS011;61763;51.416;5.442;2022-11-15T13:35:54;6.13;;;0.55;;
73515;SDS011;61763;51.416;5.442;2022-11-15T13:40:50;3.53;;;0.38;;
73515;SDS011;61763;51.416;5.442;2022-11-15T13:46:12;4.07;;;0.43;;
73515;SDS011;61763;51.416;5.442;2022-11-15T13:48:43;4.40;;;0.55;;
73515;SDS011;61763;51.416;5.442;2022-11-15T13:53:56;4.35;;;0.40;;
73515;SDS011;61763;51.416;5.442;2022-11-15T13:56:26;1.35;;;0.22;;
73515;SDS011;61763;51.416;5.442;2022-11-15T13:58:53;3.00;;;0.45;;
73515;SDS011;61763;51.416;5.442;2022-11-15T14:01:19;3.22;;;0.50;;
73515;SDS011;61763;51.416;5.442;2022-11-15T14:03:48;3.78;;;0.68;;
73515;SDS011;61763;51.416;5.442;2022-11-15T14:06:18;2.45;;;0.60;;
73515;SDS011;61763;51.416;5.442;2022-11-15T14:09:14;2.72;;;0.43;;
73515;SDS011;61763;51.416;5.442;2022-11-15T14:11:50;3.15;;;0.35;;
73515;SDS011;61763;51.416;5.442;2022-11-15T14:14:20;2.80;;;0.17;;
73515;SDS011;61763;51.416;5.442;2022-11-15T14:16:48;4.05;;;0.60;;
73515;SDS011;61763;51.416;5.442;2022-11-15T14:24:41;2.30;;;0.40;;
73515;SDS011;61763;51.416;5.442;2022-11-15T14:27:42;2.58;;;0.45;;
73515;SDS011;61763;51.416;5.442;2022-11-15T14:30:00;3.88;;;0.38;;
73515;SDS011;61763;51.416;5.442;2022-11-15T14:32:28;2.38;;;0.43;;
73515;SDS011;61763;51.416;5.442;2022-11-15T14:35:02;2.80;;;0.45;;
73515;SDS011;61763;51.416;5.442;2022-11-15T14:37:32;3.80;;;0.32;;
73515;SDS011;61763;51.416;5.442;2022-11-15T14:40:00;2.17;;;0.77;;
73515;SDS011;61763;51.416;5.442;2022-11-15T14:42:27;4.70;;;0.77;;
73515;SDS011;61763;51.416;5.442;2022-11-15T14:44:52;4.18;;;1.00;;
73515;SDS011;61763;51.416;5.442;2022-11-15T14:47:18;3.35;;;0.93;;
73515;SDS011;61763;51.416;5.442;2022-11-15T14:49:44;6.70;;;0.85;;
73515;SDS011;61763;51.416;5.442;2022-11-15T14:52:31;5.72;;;0.68;;
73515;SDS011;61763;51.416;5.442;2022-11-15T14:55:02;2.65;;;0.55;;
73515;SDS011;61763;51.416;5.442;2022-11-15T14:57:34;2.35;;;0.52;;
73515;SDS011;61763;51.416;5.442;2022-11-15T15:00:00;3.83;;;0.77;;
73515;SDS011;61763;51.416;5.442;2022-11-15T15:02:26;3.28;;;0.43;;
73515;SDS011;61763;51.416;5.442;2022-11-15T15:04:52;3.67;;;0.50;;
73515;SDS011;61763;51.416;5.442;2022-11-15T15:07:18;4.18;;;1.13;;
73515;SDS011;61763;51.416;5.442;2022-11-15T15:09:44;4.95;;;0.45;;
73515;SDS011;61763;51.416;5.442;2022-11-15T15:12:17;3.75;;;0.45;;
73515;SDS011;61763;51.416;5.442;2022-11-15T15:14:44;5.93;;;0.40;;
73515;SDS011;61763;51.416;5.442;2022-11-15T15:17:11;4.25;;;0.57;;
73515;SDS011;61763;51.416;5.442;2022-11-15T15:19:37;2.30;;;0.43;;
73515;SDS011;61763;51.416;5.442;2022-11-15T15:22:04;4.30;;;0.47;;
73515;SDS011;61763;51.416;5.442;2022-11-15T15:24:29;2.53;;;1.00;;
73515;SDS011;61763;51.416;5.442;2022-11-15T15:26:55;3.67;;;0.63;;
73515;SDS011;61763;51.416;5.442;2022-11-15T15:29:20;2.53;;;0.35;;
73515;SDS011;61763;51.416;5.442;2022-11-15T15:31:45;2.72;;;0.57;;
73515;SDS011;61763;51.416;5.442;2022-11-15T15:34:13;6.88;;;0.75;;
73515;SDS011;61763;51.416;5.442;2022-11-15T15:36:38;2.85;;;0.63;;
73515;SDS011;61763;51.416;5.442;2022-11-15T15:39:04;2.42;;;0.57;;
73515;SDS011;61763;51.416;5.442;2022-11-15T15:41:30;4.38;;;1.13;;
73515;SDS011;61763;51.416;5.442;2022-11-15T15:43:55;7.00;;;0.65;;
73515;SDS011;61763;51.416;5.442;2022-11-15T15:46:20;4.35;;;0.77;;
73515;SDS011;61763;51.416;5.442;2022-11-15T15:48:47;3.90;;;0.55;;
73515;SDS011;61763;51.416;5.442;2022-11-15T15:51:13;4.68;;;0.55;;
73515;SDS011;61763;51.416;5.442;2022-11-15T15:53:40;3.08;;;0.93;;
73515;SDS011;61763;51.416;5.442;2022-11-15T15:56:05;2.78;;;0.63;;
73515;SDS011;61763;51.416;5.442;2022-11-15T15:58:33;4.05;;;0.60;;
73515;SDS011;61763;51.416;5.442;2022-11-15T16:00:58;5.25;;;0.70;;
73515;SDS011;61763;51.416;5.442;2022-11-15T16:03:24;4.32;;;0.63;;
73515;SDS011;61763;51.416;5.442;2022-11-15T16:05:49;4.05;;;0.77;;
73515;SDS011;61763;51.416;5.442;2022-11-15T16:08:18;4.47;;;1.13;;
73515;SDS011;61763;51.416;5.442;2022-11-15T16:10:48;2.65;;;0.70;;
73515;SDS011;61763;51.416;5.442;2022-11-15T16:13:13;3.85;;;1.45;;
73515;SDS011;61763;51.416;5.442;2022-11-15T16:15:39;2.80;;;0.70;;
73515;SDS011;61763;51.416;5.442;2022-11-15T16:18:05;5.47;;;1.10;;
73515;SDS011;61763;51.416;5.442;2022-11-15T16:23:01;4.32;;;1.02;;
73515;SDS011;61763;51.416;5.442;2022-11-15T16:25:28;4.35;;;1.00;;
73515;SDS011;61763;51.416;5.442;2022-11-15T16:27:57;5.13;;;2.00;;
73515;SDS011;61763;51.416;5.442;2022-11-15T16:30:22;3.78;;;1.27;;
73515;SDS011;61763;51.416;5.442;2022-11-15T16:32:48;3.58;;;1.25;;
73515;SDS011;61763;51.416;5.442;2022-11-15T16:35:14;4.40;;;1.13;;
73515;SDS011;61763;51.416;5.442;2022-11-15T16:37:43;3.13;;;1.17;;
73515;SDS011;61763;51.416;5.442;2022-11-15T16:42:47;4.18;;;1.92;;
73515;SDS011;61763;51.416;5.442;2022-11-15T16:45:13;5.07;;;1.33;;
73515;SDS011;61763;51.416;5.442;2022-11-15T16:47:38;6.80;;;1.70;;
73515;SDS011;61763;51.416;5.442;2022-11-15T16:50:04;6.20;;;2.55;;
73515;SDS011;61763;51.416;5.442;2022-11-15T16:52:30;5.38;;;2.25;;
73515;SDS011;61763;51.416;5.442;2022-11-15T16:54:55;4.10;;;1.77;;
73515;SDS011;61763;51.416;5.442;2022-11-15T16:57:20;7.90;;;2.03;;
73515;SDS011;61763;51.416;5.442;2022-11-15T16:59:46;4.07;;;1.88;;
73515;SDS011;61763;51.416;5.442;2022-11-15T17:02:12;6.50;;;1.90;;
73515;SDS011;61763;51.416;5.442;2022-11-15T17:04:37;6.63;;;2.22;;
73515;SDS011;61763;51.416;5.442;2022-11-15T17:07:03;4.80;;;2.50;;
73515;SDS011;61763;51.416;5.442;2022-11-15T17:09:28;6.70;;;2.38;;
73515;SDS011;61763;51.416;5.442;2022-11-15T17:11:54;5.35;;;2.38;;
73515;SDS011;61763;51.416;5.442;2022-11-15T17:14:19;5.90;;;2.20;;
73515;SDS011;61763;51.416;5.442;2022-11-15T17:16:45;5.43;;;2.53;;
73515;SDS011;61763;51.416;5.442;2022-11-15T17:19:11;7.45;;;2.97;;
73515;SDS011;61763;51.416;5.442;2022-11-15T17:21:39;6.40;;;2.83;;
73515;SDS011;61763;51.416;5.442;2022-11-15T17:24:04;3.67;;;1.85;;
73515;SDS011;61763;51.416;5.442;2022-11-15T17:26:29;7.32;;;3.10;;
73515;SDS011;61763;51.416;5.442;2022-11-15T17:28:55;9.10;;;3.13;;